sensor_id;sensor_type;location;lat;lon;timestamp;temperature;humidity
71994;DHT22;59861;50.268;8.648;2023-04-24T00:00:59;17.00;62.70
71994;DHT22;59861;50.268;8.648;2023-04-24T00:03:27;17.00;62.80
71994;DHT22;59861;50.268;8.648;2023-04-24T00:05:54;17.10;62.80
71994;DHT22;59861;50.268;8.648;2023-04-24T00:08:21;17.10;62.60
71994;DHT22;59861;50.268;8.648;2023-04-24T00:10:49;17.00;62.60
71994;DHT22;59861;50.268;8.648;2023-04-24T00:13:17;17.10;62.60
71994;DHT22;59861;50.268;8.648;2023-04-24T00:15:44;17.10;62.70
71994;DHT22;59861;50.268;8.648;2023-04-24T00:18:11;17.00;62.60
71994;DHT22;59861;50.268;8.648;2023-04-24T00:20:38;17.00;62.60
71994;DHT22;59861;50.268;8.648;2023-04-24T00:23:05;17.00;62.70
71994;DHT22;59861;50.268;8.648;2023-04-24T00:25:32;17.00;63.10
71994;DHT22;59861;50.268;8.648;2023-04-24T00:27:59;17.00;62.60
71994;DHT22;59861;50.268;8.648;2023-04-24T00:30:25;17.00;62.70
71994;DHT22;59861;50.268;8.648;2023-04-24T00:32:52;17.00;62.60
71994;DHT22;59861;50.268;8.648;2023-04-24T00:35:19;17.00;63.60
71994;DHT22;59861;50.268;8.648;2023-04-24T00:37:46;17.00;62.70
71994;DHT22;59861;50.268;8.648;2023-04-24T00:40:13;17.00;62.60
71994;DHT22;59861;50.268;8.648;2023-04-24T00:42:40;17.00;62.50
71994;DHT22;59861;50.268;8.648;2023-04-24T00:45:07;17.00;62.50
71994;DHT22;59861;50.268;8.648;2023-04-24T00:47:34;17.00;62.40
71994;DHT22;59861;50.268;8.648;2023-04-24T00:50:04;17.00;62.40
71994;DHT22;59861;50.268;8.648;2023-04-24T00:52:32;17.00;62.40
71994;DHT22;59861;50.268;8.648;2023-04-24T00:54:59;17.00;62.50
71994;DHT22;59861;50.268;8.648;2023-04-24T00:57:26;17.00;62.40
71994;DHT22;59861;50.268;8.648;2023-04-24T00:59:53;17.00;62.40
71994;DHT22;59861;50.268;8.648;2023-04-24T01:02:21;17.00;62.30
71994;DHT22;59861;50.268;8.648;2023-04-24T01:04:49;16.90;62.30
71994;DHT22;59861;50.268;8.648;2023-04-24T01:07:18;16.90;62.40
71994;DHT22;59861;50.268;8.648;2023-04-24T01:09:46;16.90;62.30
71994;DHT22;59861;50.268;8.648;2023-04-24T01:12:14;16.90;62.40
71994;DHT22;59861;50.268;8.648;2023-04-24T01:14:41;16.90;62.40
71994;DHT22;59861;50.268;8.648;2023-04-24T01:17:08;16.90;62.40
71994;DHT22;59861;50.268;8.648;2023-04-24T01:19:37;16.90;62.30
71994;DHT22;59861;50.268;8.648;2023-04-24T01:22:08;16.90;62.30
71994;DHT22;59861;50.268;8.648;2023-04-24T01:24:32;16.90;62.50
71994;DHT22;59861;50.268;8.648;2023-04-24T01:26:58;16.90;62.40
71994;DHT22;59861;50.268;8.648;2023-04-24T01:29:26;16.90;62.30
71994;DHT22;59861;50.268;8.648;2023-04-24T01:31:53;16.90;62.40
71994;DHT22;59861;50.268;8.648;2023-04-24T01:34:21;16.90;62.30
71994;DHT22;59861;50.268;8.648;2023-04-24T01:36:48;16.90;62.30
71994;DHT22;59861;50.268;8.648;2023-04-24T01:39:16;16.90;62.30
71994;DHT22;59861;50.268;8.648;2023-04-24T01:41:42;16.90;63.30
71994;DHT22;59861;50.268;8.648;2023-04-24T01:44:09;16.90;62.30
71994;DHT22;59861;50.268;8.648;2023-04-24T01:46:36;16.90;62.30
71994;DHT22;59861;50.268;8.648;2023-04-24T01:49:03;16.90;62.20
71994;DHT22;59861;50.268;8.648;2023-04-24T01:51:30;16.80;62.10
71994;DHT22;59861;50.268;8.648;2023-04-24T01:53:57;16.80;62.20
71994;DHT22;59861;50.268;8.648;2023-04-24T01:56:24;16.90;62.20
71994;DHT22;59861;50.268;8.648;2023-04-24T01:58:51;16.90;62.10
71994;DHT22;59861;50.268;8.648;2023-04-24T02:01:19;16.80;62.20
71994;DHT22;59861;50.268;8.648;2023-04-24T02:03:46;16.80;62.10
71994;DHT22;59861;50.268;8.648;2023-04-24T02:06:13;16.80;62.20
71994;DHT22;59861;50.268;8.648;2023-04-24T02:08:40;16.90;62.20
71994;DHT22;59861;50.268;8.648;2023-04-24T02:11:08;16.80;62.10
71994;DHT22;59861;50.268;8.648;2023-04-24T02:13:35;16.80;62.00
71994;DHT22;59861;50.268;8.648;2023-04-24T02:16:02;16.80;62.00
71994;DHT22;59861;50.268;8.648;2023-04-24T02:18:28;16.80;62.00
71994;DHT22;59861;50.268;8.648;2023-04-24T02:20:56;16.80;62.00
71994;DHT22;59861;50.268;8.648;2023-04-24T02:23:22;16.80;61.90
71994;DHT22;59861;50.268;8.648;2023-04-24T02:25:49;16.80;61.90
71994;DHT22;59861;50.268;8.648;2023-04-24T02:28:16;16.80;61.90
71994;DHT22;59861;50.268;8.648;2023-04-24T02:30:43;16.80;61.90
71994;DHT22;59861;50.268;8.648;2023-04-24T02:33:09;16.80;61.90
71994;DHT22;59861;50.268;8.648;2023-04-24T02:35:37;16.80;61.80
71994;DHT22;59861;50.268;8.648;2023-04-24T02:38:04;16.80;61.80
71994;DHT22;59861;50.268;8.648;2023-04-24T02:40:31;16.80;61.80
71994;DHT22;59861;50.268;8.648;2023-04-24T02:42:58;16.80;61.90
71994;DHT22;59861;50.268;8.648;2023-04-24T02:45:25;16.80;61.90
71994;DHT22;59861;50.268;8.648;2023-04-24T02:47:52;16.80;61.80
71994;DHT22;59861;50.268;8.648;2023-04-24T02:50:18;16.80;61.80
71994;DHT22;59861;50.268;8.648;2023-04-24T02:52:45;16.80;61.70
71994;DHT22;59861;50.268;8.648;2023-04-24T02:55:13;16.80;61.80
71994;DHT22;59861;50.268;8.648;2023-04-24T02:57:40;16.80;61.70
71994;DHT22;59861;50.268;8.648;2023-04-24T03:00:07;16.80;61.80
71994;DHT22;59861;50.268;8.648;2023-04-24T03:02:34;16.80;61.70
71994;DHT22;59861;50.268;8.648;2023-04-24T03:05:01;16.80;61.80
71994;DHT22;59861;50.268;8.648;2023-04-24T03:07:29;16.80;61.70
71994;DHT22;59861;50.268;8.648;2023-04-24T03:09:56;16.70;61.70
71994;DHT22;59861;50.268;8.648;2023-04-24T03:12:24;16.80;61.70
71994;DHT22;59861;50.268;8.648;2023-04-24T03:14:50;16.80;61.70
71994;DHT22;59861;50.268;8.648;2023-04-24T03:17:17;16.80;61.70
71994;DHT22;59861;50.268;8.648;2023-04-24T03:19:44;16.80;61.70
71994;DHT22;59861;50.268;8.648;2023-04-24T03:22:11;16.70;61.70
71994;DHT22;59861;50.268;8.648;2023-04-24T03:24:38;16.70;61.60
71994;DHT22;59861;50.268;8.648;2023-04-24T03:27:05;16.70;61.80
71994;DHT22;59861;50.268;8.648;2023-04-24T03:29:31;16.80;61.70
71994;DHT22;59861;50.268;8.648;2023-04-24T03:31:58;16.80;61.70
71994;DHT22;59861;50.268;8.648;2023-04-24T03:34:25;16.80;61.70
71994;DHT22;59861;50.268;8.648;2023-04-24T03:36:52;16.70;61.70
71994;DHT22;59861;50.268;8.648;2023-04-24T03:39:18;16.70;61.60
71994;DHT22;59861;50.268;8.648;2023-04-24T03:41:45;16.70;61.70
71994;DHT22;59861;50.268;8.648;2023-04-24T03:44:12;16.70;61.60
71994;DHT22;59861;50.268;8.648;2023-04-24T03:46:39;16.80;61.70
71994;DHT22;59861;50.268;8.648;2023-04-24T03:49:06;16.70;61.60
71994;DHT22;59861;50.268;8.648;2023-04-24T03:51:32;16.80;61.70
71994;DHT22;59861;50.268;8.648;2023-04-24T03:53:59;16.70;61.60
71994;DHT22;59861;50.268;8.648;2023-04-24T03:56:26;16.70;61.60
71994;DHT22;59861;50.268;8.648;2023-04-24T03:58:53;16.70;61.60
71994;DHT22;59861;50.268;8.648;2023-04-24T04:01:20;16.70;61.60
71994;DHT22;59861;50.268;8.648;2023-04-24T04:03:46;16.70;61.70
71994;DHT22;59861;50.268;8.648;2023-04-24T04:06:13;16.70;62.00
71994;DHT22;59861;50.268;8.648;2023-04-24T04:08:40;16.70;62.10
71994;DHT22;59861;50.268;8.648;2023-04-24T04:11:07;16.60;62.30
71994;DHT22;59861;50.268;8.648;2023-04-24T04:13:34;16.60;62.50
71994;DHT22;59861;50.268;8.648;2023-04-24T04:16:00;16.60;62.60
71994;DHT22;59861;50.268;8.648;2023-04-24T04:18:27;16.60;62.60
71994;DHT22;59861;50.268;8.648;2023-04-24T04:20:54;16.60;62.70
71994;DHT22;59861;50.268;8.648;2023-04-24T04:23:22;16.60;62.70
71994;DHT22;59861;50.268;8.648;2023-04-24T04:25:49;16.60;62.90
71994;DHT22;59861;50.268;8.648;2023-04-24T04:28:17;16.60;62.90
71994;DHT22;59861;50.268;8.648;2023-04-24T04:30:45;16.60;63.00
71994;DHT22;59861;50.268;8.648;2023-04-24T04:33:12;16.60;62.90
71994;DHT22;59861;50.268;8.648;2023-04-24T04:35:40;16.60;63.10
71994;DHT22;59861;50.268;8.648;2023-04-24T04:38:07;16.60;63.00
71994;DHT22;59861;50.268;8.648;2023-04-24T04:40:34;16.60;63.10
71994;DHT22;59861;50.268;8.648;2023-04-24T04:43:00;16.60;63.00
71994;DHT22;59861;50.268;8.648;2023-04-24T04:45:28;16.60;63.00
71994;DHT22;59861;50.268;8.648;2023-04-24T04:47:56;16.60;63.00
71994;DHT22;59861;50.268;8.648;2023-04-24T04:50:23;16.60;63.00
71994;DHT22;59861;50.268;8.648;2023-04-24T04:52:50;16.60;63.10
71994;DHT22;59861;50.268;8.648;2023-04-24T04:55:16;16.70;63.00
71994;DHT22;59861;50.268;8.648;2023-04-24T04:57:45;16.60;63.00
71994;DHT22;59861;50.268;8.648;2023-04-24T05:00:12;16.70;63.10
71994;DHT22;59861;50.268;8.648;2023-04-24T05:02:39;16.60;63.00
71994;DHT22;59861;50.268;8.648;2023-04-24T05:05:06;16.70;63.10
71994;DHT22;59861;50.268;8.648;2023-04-24T05:07:34;16.70;63.80
71994;DHT22;59861;50.268;8.648;2023-04-24T05:10:01;16.70;63.10
71994;DHT22;59861;50.268;8.648;2023-04-24T05:12:28;16.70;63.20
71994;DHT22;59861;50.268;8.648;2023-04-24T05:14:54;16.70;63.10
71994;DHT22;59861;50.268;8.648;2023-04-24T05:17:21;16.70;63.10
71994;DHT22;59861;50.268;8.648;2023-04-24T05:19:48;16.70;63.10
71994;DHT22;59861;50.268;8.648;2023-04-24T05:22:15;16.70;63.10
71994;DHT22;59861;50.268;8.648;2023-04-24T05:24:43;16.70;63.10
71994;DHT22;59861;50.268;8.648;2023-04-24T05:27:10;16.70;63.20
71994;DHT22;59861;50.268;8.648;2023-04-24T05:29:37;16.70;63.10
71994;DHT22;59861;50.268;8.648;2023-04-24T05:32:04;16.70;63.00
71994;DHT22;59861;50.268;8.648;2023-04-24T05:34:31;16.80;63.20
71994;DHT22;59861;50.268;8.648;2023-04-24T05:36:58;16.70;63.00
71994;DHT22;59861;50.268;8.648;2023-04-24T05:39:24;16.80;63.10
71994;DHT22;59861;50.268;8.648;2023-04-24T05:41:51;16.70;63.00
71994;DHT22;59861;50.268;8.648;2023-04-24T05:44:18;16.70;63.10
71994;DHT22;59861;50.268;8.648;2023-04-24T05:46:45;16.70;63.00
71994;DHT22;59861;50.268;8.648;2023-04-24T05:49:12;16.80;63.00
71994;DHT22;59861;50.268;8.648;2023-04-24T05:51:39;16.70;63.00
71994;DHT22;59861;50.268;8.648;2023-04-24T05:54:06;16.70;62.90
71994;DHT22;59861;50.268;8.648;2023-04-24T05:56:32;16.80;63.00
71994;DHT22;59861;50.268;8.648;2023-04-24T05:58:59;16.70;62.70
71994;DHT22;59861;50.268;8.648;2023-04-24T06:01:26;16.80;62.90
71994;DHT22;59861;50.268;8.648;2023-04-24T06:03:53;16.80;62.80
71994;DHT22;59861;50.268;8.648;2023-04-24T06:06:20;16.80;62.80
71994;DHT22;59861;50.268;8.648;2023-04-24T06:08:46;16.80;62.80
71994;DHT22;59861;50.268;8.648;2023-04-24T06:11:13;16.80;62.80
71994;DHT22;59861;50.268;8.648;2023-04-24T06:13:40;16.80;62.80
71994;DHT22;59861;50.268;8.648;2023-04-24T06:16:07;16.80;62.80
71994;DHT22;59861;50.268;8.648;2023-04-24T06:18:34;16.80;62.70
71994;DHT22;59861;50.268;8.648;2023-04-24T06:21:01;16.80;62.70
71994;DHT22;59861;50.268;8.648;2023-04-24T06:23:28;16.80;62.80
71994;DHT22;59861;50.268;8.648;2023-04-24T06:25:56;16.80;62.70
71994;DHT22;59861;50.268;8.648;2023-04-24T06:28:23;16.80;62.80
71994;DHT22;59861;50.268;8.648;2023-04-24T06:30:50;16.80;62.70
71994;DHT22;59861;50.268;8.648;2023-04-24T06:33:17;16.80;62.80
71994;DHT22;59861;50.268;8.648;2023-04-24T06:35:44;16.80;62.60
71994;DHT22;59861;50.268;8.648;2023-04-24T06:38:10;16.80;62.50
71994;DHT22;59861;50.268;8.648;2023-04-24T06:40:37;16.80;62.40
71994;DHT22;59861;50.268;8.648;2023-04-24T06:43:04;16.80;62.40
71994;DHT22;59861;50.268;8.648;2023-04-24T06:45:32;16.80;62.30
71994;DHT22;59861;50.268;8.648;2023-04-24T06:47:58;16.80;62.20
71994;DHT22;59861;50.268;8.648;2023-04-24T06:50:25;16.80;62.20
71994;DHT22;59861;50.268;8.648;2023-04-24T06:52:52;16.80;62.30
71994;DHT22;59861;50.268;8.648;2023-04-24T06:55:19;16.90;62.20
71994;DHT22;59861;50.268;8.648;2023-04-24T06:57:46;16.80;62.10
71994;DHT22;59861;50.268;8.648;2023-04-24T07:00:13;16.80;62.10
71994;DHT22;59861;50.268;8.648;2023-04-24T07:02:40;16.80;62.00
71994;DHT22;59861;50.268;8.648;2023-04-24T07:05:06;16.80;62.00
71994;DHT22;59861;50.268;8.648;2023-04-24T07:07:34;16.80;62.00
71994;DHT22;59861;50.268;8.648;2023-04-24T07:10:02;16.90;62.10
71994;DHT22;59861;50.268;8.648;2023-04-24T07:12:29;16.90;61.90
71994;DHT22;59861;50.268;8.648;2023-04-24T07:14:56;16.80;61.90
71994;DHT22;59861;50.268;8.648;2023-04-24T07:17:23;16.90;62.10
71994;DHT22;59861;50.268;8.648;2023-04-24T07:19:50;16.90;62.00
71994;DHT22;59861;50.268;8.648;2023-04-24T07:22:17;16.90;62.00
71994;DHT22;59861;50.268;8.648;2023-04-24T07:24:44;16.90;61.90
71994;DHT22;59861;50.268;8.648;2023-04-24T07:27:11;16.90;62.00
71994;DHT22;59861;50.268;8.648;2023-04-24T07:29:38;16.90;62.10
71994;DHT22;59861;50.268;8.648;2023-04-24T07:32:05;16.90;62.10
71994;DHT22;59861;50.268;8.648;2023-04-24T07:34:33;16.90;62.10
71994;DHT22;59861;50.268;8.648;2023-04-24T07:37:00;16.90;62.20
71994;DHT22;59861;50.268;8.648;2023-04-24T07:39:27;16.90;62.00
71994;DHT22;59861;50.268;8.648;2023-04-24T07:41:55;16.90;62.10
71994;DHT22;59861;50.268;8.648;2023-04-24T07:44:21;16.90;62.00
71994;DHT22;59861;50.268;8.648;2023-04-24T07:46:48;16.90;62.00
71994;DHT22;59861;50.268;8.648;2023-04-24T07:49:15;16.90;62.20
71994;DHT22;59861;50.268;8.648;2023-04-24T07:51:42;16.90;62.20
71994;DHT22;59861;50.268;8.648;2023-04-24T07:54:09;17.00;62.20
71994;DHT22;59861;50.268;8.648;2023-04-24T07:56:36;16.90;62.20
71994;DHT22;59861;50.268;8.648;2023-04-24T07:59:05;17.00;62.20
71994;DHT22;59861;50.268;8.648;2023-04-24T08:01:31;17.00;62.30
71994;DHT22;59861;50.268;8.648;2023-04-24T08:03:58;17.00;62.20
71994;DHT22;59861;50.268;8.648;2023-04-24T08:06:25;16.90;62.10
71994;DHT22;59861;50.268;8.648;2023-04-24T08:08:54;17.00;62.30
71994;DHT22;59861;50.268;8.648;2023-04-24T08:11:20;16.90;62.20
71994;DHT22;59861;50.268;8.648;2023-04-24T08:13:47;17.00;62.30
71994;DHT22;59861;50.268;8.648;2023-04-24T08:16:14;17.00;61.70
71994;DHT22;59861;50.268;8.648;2023-04-24T08:18:41;17.00;62.40
71994;DHT22;59861;50.268;8.648;2023-04-24T08:21:08;17.00;62.40
71994;DHT22;59861;50.268;8.648;2023-04-24T08:23:34;16.90;62.30
71994;DHT22;59861;50.268;8.648;2023-04-24T08:26:01;17.00;62.40
71994;DHT22;59861;50.268;8.648;2023-04-24T08:28:29;17.00;62.30
71994;DHT22;59861;50.268;8.648;2023-04-24T08:30:55;17.00;62.30
71994;DHT22;59861;50.268;8.648;2023-04-24T08:33:23;17.00;62.30
71994;DHT22;59861;50.268;8.648;2023-04-24T08:35:50;17.00;62.30
71994;DHT22;59861;50.268;8.648;2023-04-24T08:38:16;17.00;62.40
71994;DHT22;59861;50.268;8.648;2023-04-24T08:40:43;17.00;62.30
71994;DHT22;59861;50.268;8.648;2023-04-24T08:43:12;17.00;62.50
71994;DHT22;59861;50.268;8.648;2023-04-24T08:45:39;17.00;62.40
71994;DHT22;59861;50.268;8.648;2023-04-24T08:48:06;17.00;62.30
71994;DHT22;59861;50.268;8.648;2023-04-24T08:50:34;17.00;62.40
71994;DHT22;59861;50.268;8.648;2023-04-24T08:53:01;17.00;62.40
71994;DHT22;59861;50.268;8.648;2023-04-24T08:55:28;17.00;62.30
71994;DHT22;59861;50.268;8.648;2023-04-24T08:57:56;17.00;62.40
71994;DHT22;59861;50.268;8.648;2023-04-24T09:00:24;17.00;62.20
71994;DHT22;59861;50.268;8.648;2023-04-24T09:02:52;17.00;62.20
71994;DHT22;59861;50.268;8.648;2023-04-24T09:05:18;17.00;62.30
71994;DHT22;59861;50.268;8.648;2023-04-24T09:07:53;17.00;62.20
71994;DHT22;59861;50.268;8.648;2023-04-24T09:10:15;17.00;62.30
71994;DHT22;59861;50.268;8.648;2023-04-24T09:12:42;17.00;62.30
71994;DHT22;59861;50.268;8.648;2023-04-24T09:15:10;17.00;62.20
71994;DHT22;59861;50.268;8.648;2023-04-24T09:17:38;17.00;62.20
71994;DHT22;59861;50.268;8.648;2023-04-24T09:20:05;17.00;62.20
71994;DHT22;59861;50.268;8.648;2023-04-24T09:22:32;17.00;62.40
71994;DHT22;59861;50.268;8.648;2023-04-24T09:25:02;17.00;62.20
71994;DHT22;59861;50.268;8.648;2023-04-24T09:27:31;17.00;62.20
71994;DHT22;59861;50.268;8.648;2023-04-24T09:29:58;17.00;62.20
71994;DHT22;59861;50.268;8.648;2023-04-24T09:32:25;16.90;62.10
71994;DHT22;59861;50.268;8.648;2023-04-24T09:37:37;17.00;62.00
71994;DHT22;59861;50.268;8.648;2023-04-24T09:40:22;17.00;62.00
71994;DHT22;59861;50.268;8.648;2023-04-24T09:42:52;17.00;62.10
71994;DHT22;59861;50.268;8.648;2023-04-24T09:45:19;17.00;61.90
71994;DHT22;59861;50.268;8.648;2023-04-24T09:47:46;17.00;61.80
71994;DHT22;59861;50.268;8.648;2023-04-24T09:50:16;17.00;61.80
71994;DHT22;59861;50.268;8.648;2023-04-24T09:52:47;17.00;61.90
71994;DHT22;59861;50.268;8.648;2023-04-24T09:55:18;17.00;61.90
71994;DHT22;59861;50.268;8.648;2023-04-24T09:57:52;16.90;61.80
71994;DHT22;59861;50.268;8.648;2023-04-24T10:00:29;16.90;61.80
71994;DHT22;59861;50.268;8.648;2023-04-24T10:03:00;16.90;61.80
71994;DHT22;59861;50.268;8.648;2023-04-24T10:05:38;17.00;61.80
71994;DHT22;59861;50.268;8.648;2023-04-24T10:08:03;16.90;61.80
71994;DHT22;59861;50.268;8.648;2023-04-24T10:10:30;16.90;61.80
71994;DHT22;59861;50.268;8.648;2023-04-24T10:12:57;17.00;61.80
71994;DHT22;59861;50.268;8.648;2023-04-24T10:15:24;17.00;61.70
71994;DHT22;59861;50.268;8.648;2023-04-24T10:17:52;16.90;61.80
71994;DHT22;59861;50.268;8.648;2023-04-24T10:20:20;17.00;61.70
71994;DHT22;59861;50.268;8.648;2023-04-24T10:22:48;17.00;62.30
71994;DHT22;59861;50.268;8.648;2023-04-24T10:25:22;16.90;61.80
71994;DHT22;59861;50.268;8.648;2023-04-24T10:27:50;17.00;61.70
71994;DHT22;59861;50.268;8.648;2023-04-24T10:30:18;17.00;61.70
71994;DHT22;59861;50.268;8.648;2023-04-24T10:32:45;17.00;61.70
71994;DHT22;59861;50.268;8.648;2023-04-24T10:35:12;16.90;61.80
71994;DHT22;59861;50.268;8.648;2023-04-24T10:37:40;17.00;61.70
71994;DHT22;59861;50.268;8.648;2023-04-24T10:40:08;17.00;61.80
71994;DHT22;59861;50.268;8.648;2023-04-24T10:42:35;17.00;61.70
71994;DHT22;59861;50.268;8.648;2023-04-24T10:45:06;17.00;61.70
71994;DHT22;59861;50.268;8.648;2023-04-24T10:47:40;17.00;61.70
71994;DHT22;59861;50.268;8.648;2023-04-24T10:50:09;17.00;61.80
71994;DHT22;59861;50.268;8.648;2023-04-24T10:53:04;16.90;61.80
71994;DHT22;59861;50.268;8.648;2023-04-24T10:55:08;17.00;61.80
71994;DHT22;59861;50.268;8.648;2023-04-24T10:57:34;16.90;61.80
71994;DHT22;59861;50.268;8.648;2023-04-24T11:00:13;17.00;61.90
71994;DHT22;59861;50.268;8.648;2023-04-24T11:02:39;17.00;61.90
71994;DHT22;59861;50.268;8.648;2023-04-24T11:05:08;17.00;62.60
71994;DHT22;59861;50.268;8.648;2023-04-24T11:10:25;17.00;62.00
71994;DHT22;59861;50.268;8.648;2023-04-24T11:12:52;17.00;62.00
71994;DHT22;59861;50.268;8.648;2023-04-24T11:15:19;17.00;62.00
71994;DHT22;59861;50.268;8.648;2023-04-24T11:17:47;17.00;62.00
71994;DHT22;59861;50.268;8.648;2023-04-24T11:20:16;17.00;62.00
71994;DHT22;59861;50.268;8.648;2023-04-24T11:22:42;17.00;62.00
71994;DHT22;59861;50.268;8.648;2023-04-24T11:25:09;17.00;62.00
71994;DHT22;59861;50.268;8.648;2023-04-24T11:27:43;17.00;62.40
71994;DHT22;59861;50.268;8.648;2023-04-24T11:30:06;17.00;62.00
71994;DHT22;59861;50.268;8.648;2023-04-24T11:35:06;17.00;62.10
71994;DHT22;59861;50.268;8.648;2023-04-24T11:37:41;16.90;62.10
71994;DHT22;59861;50.268;8.648;2023-04-24T11:40:05;16.90;62.00
71994;DHT22;59861;50.268;8.648;2023-04-24T11:42:36;16.90;62.10
71994;DHT22;59861;50.268;8.648;2023-04-24T11:45:07;16.90;62.10
71994;DHT22;59861;50.268;8.648;2023-04-24T11:47:31;17.00;62.10
71994;DHT22;59861;50.268;8.648;2023-04-24T11:49:59;16.90;62.10
71994;DHT22;59861;50.268;8.648;2023-04-24T11:52:27;16.90;62.00
71994;DHT22;59861;50.268;8.648;2023-04-24T11:54:53;17.00;62.10
71994;DHT22;59861;50.268;8.648;2023-04-24T11:57:21;16.90;62.00
71994;DHT22;59861;50.268;8.648;2023-04-24T11:59:48;16.90;62.00
71994;DHT22;59861;50.268;8.648;2023-04-24T12:02:24;16.90;62.10
71994;DHT22;59861;50.268;8.648;2023-04-24T12:04:52;16.90;62.10
71994;DHT22;59861;50.268;8.648;2023-04-24T12:07:19;16.90;62.00
71994;DHT22;59861;50.268;8.648;2023-04-24T12:09:47;17.00;62.10
71994;DHT22;59861;50.268;8.648;2023-04-24T12:12:15;16.90;61.90
71994;DHT22;59861;50.268;8.648;2023-04-24T12:14:49;16.90;62.00
71994;DHT22;59861;50.268;8.648;2023-04-24T12:17:16;16.90;62.10
71994;DHT22;59861;50.268;8.648;2023-04-24T12:19:46;16.90;62.10
71994;DHT22;59861;50.268;8.648;2023-04-24T12:22:13;16.90;62.00
71994;DHT22;59861;50.268;8.648;2023-04-24T12:25:00;16.90;62.10
71994;DHT22;59861;50.268;8.648;2023-04-24T12:27:24;17.00;62.10
71994;DHT22;59861;50.268;8.648;2023-04-24T12:29:57;17.00;62.00
71994;DHT22;59861;50.268;8.648;2023-04-24T12:32:24;17.00;62.20
71994;DHT22;59861;50.268;8.648;2023-04-24T12:34:51;17.00;62.10
71994;DHT22;59861;50.268;8.648;2023-04-24T12:37:18;17.00;62.20
71994;DHT22;59861;50.268;8.648;2023-04-24T12:40:03;17.00;62.20
71994;DHT22;59861;50.268;8.648;2023-04-24T12:42:27;16.90;62.20
71994;DHT22;59861;50.268;8.648;2023-04-24T12:44:59;16.90;62.20
71994;DHT22;59861;50.268;8.648;2023-04-24T12:47:26;16.90;62.30
71994;DHT22;59861;50.268;8.648;2023-04-24T12:49:53;16.90;63.30
71994;DHT22;59861;50.268;8.648;2023-04-24T12:52:22;16.90;62.40
71994;DHT22;59861;50.268;8.648;2023-04-24T12:54:52;16.90;62.50
71994;DHT22;59861;50.268;8.648;2023-04-24T12:57:19;16.90;62.40
71994;DHT22;59861;50.268;8.648;2023-04-24T12:59:46;16.90;62.40
71994;DHT22;59861;50.268;8.648;2023-04-24T13:02:12;16.90;62.50
71994;DHT22;59861;50.268;8.648;2023-04-24T13:04:41;16.90;62.40
71994;DHT22;59861;50.268;8.648;2023-04-24T13:07:08;16.90;62.40
71994;DHT22;59861;50.268;8.648;2023-04-24T13:09:35;16.90;62.50
71994;DHT22;59861;50.268;8.648;2023-04-24T13:12:01;16.90;62.50
71994;DHT22;59861;50.268;8.648;2023-04-24T13:14:28;16.90;62.50
71994;DHT22;59861;50.268;8.648;2023-04-24T13:16:56;16.90;62.50
71994;DHT22;59861;50.268;8.648;2023-04-24T13:19:28;16.90;62.40
71994;DHT22;59861;50.268;8.648;2023-04-24T13:21:54;16.90;62.40
71994;DHT22;59861;50.268;8.648;2023-04-24T13:24:27;16.90;62.40
71994;DHT22;59861;50.268;8.648;2023-04-24T13:26:50;16.90;62.30
71994;DHT22;59861;50.268;8.648;2023-04-24T13:29:17;16.90;62.50
71994;DHT22;59861;50.268;8.648;2023-04-24T13:31:44;16.90;62.50
71994;DHT22;59861;50.268;8.648;2023-04-24T13:34:11;16.90;62.40
71994;DHT22;59861;50.268;8.648;2023-04-24T13:36:38;16.90;62.50
71994;DHT22;59861;50.268;8.648;2023-04-24T13:39:05;16.90;62.60
71994;DHT22;59861;50.268;8.648;2023-04-24T13:41:32;16.90;62.60
71994;DHT22;59861;50.268;8.648;2023-04-24T13:44:00;16.90;62.50
71994;DHT22;59861;50.268;8.648;2023-04-24T13:46:27;16.90;62.50
71994;DHT22;59861;50.268;8.648;2023-04-24T13:48:54;16.90;62.60
71994;DHT22;59861;50.268;8.648;2023-04-24T13:51:20;16.90;62.70
71994;DHT22;59861;50.268;8.648;2023-04-24T13:53:47;16.90;62.50
71994;DHT22;59861;50.268;8.648;2023-04-24T13:56:14;16.90;62.60
71994;DHT22;59861;50.268;8.648;2023-04-24T13:58:41;16.90;62.50
71994;DHT22;59861;50.268;8.648;2023-04-24T14:01:08;16.90;62.50
71994;DHT22;59861;50.268;8.648;2023-04-24T14:03:36;16.90;62.50
71994;DHT22;59861;50.268;8.648;2023-04-24T14:06:03;16.90;62.50
71994;DHT22;59861;50.268;8.648;2023-04-24T14:08:30;16.90;62.50
71994;DHT22;59861;50.268;8.648;2023-04-24T14:10:57;16.90;62.50
71994;DHT22;59861;50.268;8.648;2023-04-24T14:13:24;16.90;62.50
71994;DHT22;59861;50.268;8.648;2023-04-24T14:15:51;16.90;62.60
71994;DHT22;59861;50.268;8.648;2023-04-24T14:18:18;16.90;62.70
71994;DHT22;59861;50.268;8.648;2023-04-24T14:20:45;16.90;62.70
71994;DHT22;59861;50.268;8.648;2023-04-24T14:23:12;16.90;62.80
71994;DHT22;59861;50.268;8.648;2023-04-24T14:25:38;16.80;62.80
71994;DHT22;59861;50.268;8.648;2023-04-24T14:28:05;16.80;63.70
71994;DHT22;59861;50.268;8.648;2023-04-24T14:30:33;16.80;62.80
71994;DHT22;59861;50.268;8.648;2023-04-24T14:33:00;16.80;62.80
71994;DHT22;59861;50.268;8.648;2023-04-24T14:35:26;16.90;62.80
71994;DHT22;59861;50.268;8.648;2023-04-24T14:37:54;16.80;62.90
71994;DHT22;59861;50.268;8.648;2023-04-24T14:40:21;16.80;63.00
71994;DHT22;59861;50.268;8.648;2023-04-24T14:42:47;16.80;63.10
71994;DHT22;59861;50.268;8.648;2023-04-24T14:45:14;16.90;63.20
71994;DHT22;59861;50.268;8.648;2023-04-24T14:47:41;16.80;63.10
71994;DHT22;59861;50.268;8.648;2023-04-24T14:50:08;16.90;63.30
71994;DHT22;59861;50.268;8.648;2023-04-24T14:52:35;16.80;63.10
71994;DHT22;59861;50.268;8.648;2023-04-24T14:55:02;16.80;63.10
71994;DHT22;59861;50.268;8.648;2023-04-24T14:57:29;16.90;63.20
71994;DHT22;59861;50.268;8.648;2023-04-24T14:59:55;16.90;63.00
71994;DHT22;59861;50.268;8.648;2023-04-24T15:02:22;16.90;63.20
71994;DHT22;59861;50.268;8.648;2023-04-24T15:07:16;16.10;54.40
71994;DHT22;59861;50.268;8.648;2023-04-24T15:09:42;15.70;55.40
71994;DHT22;59861;50.268;8.648;2023-04-24T15:12:09;15.70;55.90
71994;DHT22;59861;50.268;8.648;2023-04-24T15:14:38;15.80;59.30
71994;DHT22;59861;50.268;8.648;2023-04-24T15:17:04;16.10;60.60
71994;DHT22;59861;50.268;8.648;2023-04-24T15:19:31;16.30;60.40
71994;DHT22;59861;50.268;8.648;2023-04-24T15:21:58;16.50;60.20
71994;DHT22;59861;50.268;8.648;2023-04-24T15:24:25;16.60;60.00
71994;DHT22;59861;50.268;8.648;2023-04-24T15:26:52;16.70;60.00
71994;DHT22;59861;50.268;8.648;2023-04-24T15:29:19;16.70;60.20
71994;DHT22;59861;50.268;8.648;2023-04-24T15:31:46;16.80;60.90
71994;DHT22;59861;50.268;8.648;2023-04-24T15:34:13;16.80;61.50
71994;DHT22;59861;50.268;8.648;2023-04-24T15:36:40;16.90;61.90
71994;DHT22;59861;50.268;8.648;2023-04-24T15:39:06;16.90;62.40
71994;DHT22;59861;50.268;8.648;2023-04-24T15:41:34;16.90;62.40